createdAt,value
2017-12-13T00:00:11.392Z,929.65
2017-12-13T00:00:24.511Z,929.62
2017-12-13T00:00:37.550Z,929.67
2017-12-13T00:00:50.645Z,929.64
2017-12-13T00:01:03.769Z,929.72
2017-12-13T00:01:16.904Z,929.66
2017-12-13T00:01:29.506Z,929.6
2017-12-13T00:01:42.694Z,929.62
2017-12-13T00:01:55.791Z,929.63
2017-12-13T00:02:08.468Z,929.64
2017-12-13T00:02:21.045Z,929.62
2017-12-13T00:02:34.158Z,929.62
2017-12-13T00:02:47.327Z,929.62
2017-12-13T00:03:00.026Z,929.61
2017-12-13T00:03:12.158Z,929.61
2017-12-13T00:03:25.317Z,929.66
2017-12-13T00:03:38.391Z,929.68
2017-12-13T00:03:50.516Z,929.71
2017-12-13T00:04:03.591Z,929.65
2017-12-13T00:04:16.651Z,929.66
2017-12-13T00:04:29.357Z,929.7
2017-12-13T00:04:42.465Z,929.69
2017-12-13T00:04:55.547Z,929.69
2017-12-13T00:05:09.574Z,929.67
2017-12-13T00:05:22.659Z,929.7
2017-12-13T00:05:35.748Z,929.7
2017-12-13T00:05:48.832Z,929.71
2017-12-13T00:06:01.913Z,929.72
2017-12-13T00:06:14.588Z,929.61
2017-12-13T00:06:27.704Z,929.69
2017-12-13T00:06:40.831Z,929.65
2017-12-13T00:06:53.404Z,929.7
2017-12-13T00:07:06.482Z,929.7
2017-12-13T00:07:19.548Z,929.72
2017-12-13T00:07:32.113Z,929.68
2017-12-13T00:07:45.231Z,929.67
2017-12-13T00:07:58.321Z,929.71
2017-12-13T00:08:10.932Z,929.73
2017-12-13T00:08:23.533Z,929.7
2017-12-13T00:08:36.156Z,929.67
2017-12-13T00:08:49.231Z,929.7
2017-12-13T00:09:02.328Z,929.73
2017-12-13T00:09:15.435Z,929.73
2017-12-13T00:09:27.056Z,929.71
2017-12-13T00:09:39.657Z,929.76
2017-12-13T00:09:52.286Z,929.76
2017-12-13T00:10:05.376Z,929.76
2017-12-13T00:10:17.991Z,929.7
2017-12-13T00:10:31.104Z,929.69
2017-12-13T00:10:44.216Z,929.7
2017-12-13T00:10:57.279Z,929.72
2017-12-13T00:11:10.358Z,929.79
2017-12-13T00:11:23.442Z,929.75
2017-12-13T00:11:36.003Z,929.71
2017-12-13T00:11:49.086Z,929.73
2017-12-13T00:12:01.715Z,929.74
2017-12-13T00:12:14.820Z,929.75
2017-12-13T00:12:27.899Z,929.78
2017-12-13T00:12:41.003Z,929.76
2017-12-13T00:12:54.164Z,929.78
2017-12-13T00:13:07.279Z,929.74
2017-12-13T00:13:20.602Z,929.74
2017-12-13T00:13:33.704Z,929.72
2017-12-13T00:13:47.056Z,929.75
2017-12-13T00:14:00.125Z,929.74
2017-12-13T00:14:12.682Z,929.77
2017-12-13T00:14:25.297Z,929.73
2017-12-13T00:14:38.355Z,929.72
2017-12-13T00:14:51.419Z,929.75
2017-12-13T00:15:04.613Z,929.76
2017-12-13T00:15:17.701Z,929.76
2017-12-13T00:15:30.790Z,929.71
2017-12-13T00:15:43.435Z,929.75
2017-12-13T00:15:56.030Z,929.76
2017-12-13T00:16:09.139Z,929.76
2017-12-13T00:16:21.761Z,929.79
2017-12-13T00:16:34.877Z,929.74
2017-12-13T00:16:47.984Z,929.73
2017-12-13T00:17:01.090Z,929.76
2017-12-13T00:17:14.162Z,929.74
2017-12-13T00:17:26.777Z,929.71
2017-12-13T00:17:39.394Z,929.71
2017-12-13T00:17:52.514Z,929.71
2017-12-13T00:18:05.650Z,929.71
2017-12-13T00:18:18.284Z,929.7
2017-12-13T00:18:31.449Z,929.73
2017-12-13T00:18:44.084Z,929.75
2017-12-13T00:18:57.190Z,929.74
2017-12-13T00:19:10.304Z,929.77
2017-12-13T00:19:22.414Z,929.75
2017-12-13T00:19:35.533Z,929.77
2017-12-13T00:19:48.118Z,929.68
2017-12-13T00:20:01.199Z,929.71
2017-12-13T00:20:14.273Z,929.81
2017-12-13T00:20:27.406Z,929.72
2017-12-13T00:20:40.103Z,929.77
2017-12-13T00:20:52.246Z,929.72
2017-12-13T00:21:05.332Z,929.68
2017-12-13T00:21:18.477Z,929.69
2017-12-13T00:21:31.587Z,929.69
2017-12-13T00:21:44.242Z,929.73
2017-12-13T00:21:57.332Z,929.64
2017-12-13T00:22:10.388Z,929.72
2017-12-13T00:22:23.459Z,929.74
2017-12-13T00:22:35.660Z,929.65
2017-12-13T00:22:48.261Z,929.71
2017-12-13T00:23:00.871Z,929.74
2017-12-13T00:23:13.639Z,929.71
2017-12-13T00:23:26.721Z,929.7
2017-12-13T00:23:39.797Z,929.72
2017-12-13T00:23:52.845Z,929.69
2017-12-13T00:24:05.480Z,929.69
2017-12-13T00:24:18.061Z,929.66
2017-12-13T00:24:31.163Z,929.63
2017-12-13T00:24:44.270Z,929.7
2017-12-13T00:24:57.374Z,929.69
2017-12-13T00:25:10.552Z,929.68
2017-12-13T00:25:23.599Z,929.7
2017-12-13T00:25:36.738Z,929.69
2017-12-13T00:25:49.386Z,929.67
2017-12-13T00:26:02.497Z,929.73
2017-12-13T00:26:15.067Z,929.69
2017-12-13T00:26:28.132Z,929.65
2017-12-13T00:26:41.234Z,929.65
2017-12-13T00:26:53.853Z,929.68
2017-12-13T00:27:06.403Z,929.69
2017-12-13T00:27:19.451Z,929.67
2017-12-13T00:27:32.512Z,929.69
2017-12-13T00:27:45.579Z,929.69
2017-12-13T00:27:58.663Z,929.66
2017-12-13T00:28:11.746Z,929.67
2017-12-13T00:28:24.555Z,929.68
2017-12-13T00:28:37.601Z,929.66
2017-12-13T00:28:50.662Z,929.67
2017-12-13T00:29:03.702Z,929.68
2017-12-13T00:29:16.800Z,929.68
2017-12-13T00:29:29.905Z,929.65
2017-12-13T00:29:42.979Z,929.64
2017-12-13T00:29:55.674Z,929.67
2017-12-13T00:30:08.767Z,929.71
2017-12-13T00:30:21.866Z,929.67
2017-12-13T00:30:34.979Z,929.66
2017-12-13T00:30:47.147Z,929.68
2017-12-13T00:31:00.339Z,929.68
2017-12-13T00:31:13.424Z,929.7
2017-12-13T00:31:26.525Z,929.69
2017-12-13T00:31:38.680Z,929.66
2017-12-13T00:31:51.749Z,929.66
2017-12-13T00:32:04.865Z,929.66
2017-12-13T00:32:17.950Z,929.64
2017-12-13T00:32:30.629Z,929.65
2017-12-13T00:32:43.720Z,929.7
2017-12-13T00:32:56.891Z,929.71
2017-12-13T00:33:09.999Z,929.68
2017-12-13T00:33:22.615Z,929.7
2017-12-13T00:33:35.671Z,929.65
2017-12-13T00:33:48.738Z,929.69
2017-12-13T00:34:01.848Z,929.7
2017-12-13T00:34:14.519Z,929.66
2017-12-13T00:34:27.608Z,929.71
2017-12-13T00:34:40.755Z,929.67
2017-12-13T00:34:53.848Z,929.71
2017-12-13T00:35:06.544Z,929.74
2017-12-13T00:35:19.662Z,929.69
2017-12-13T00:35:32.790Z,929.72
2017-12-13T00:35:45.914Z,929.72
2017-12-13T00:35:59.027Z,929.7
2017-12-13T00:36:12.193Z,929.72
2017-12-13T00:36:24.778Z,929.72
2017-12-13T00:36:37.878Z,929.69
2017-12-13T00:36:50.983Z,929.67
2017-12-13T00:37:04.069Z,929.66
2017-12-13T00:37:16.647Z,929.67
2017-12-13T00:37:29.669Z,929.69
2017-12-13T00:37:42.808Z,929.65
2017-12-13T00:37:55.915Z,929.68
2017-12-13T00:38:08.974Z,929.74
2017-12-13T00:38:21.998Z,929.76
2017-12-13T00:38:35.134Z,929.66
2017-12-13T00:38:47.782Z,929.66
2017-12-13T00:39:00.381Z,929.73
2017-12-13T00:39:12.985Z,929.74
2017-12-13T00:39:26.084Z,929.7
2017-12-13T00:39:39.207Z,929.7
2017-12-13T00:39:52.331Z,929.69
2017-12-13T00:40:05.007Z,929.74
2017-12-13T00:40:18.139Z,929.7
2017-12-13T00:40:31.256Z,929.71
2017-12-13T00:40:44.393Z,929.69
2017-12-13T00:40:57.501Z,929.66
2017-12-13T00:41:10.164Z,929.66
2017-12-13T00:41:23.231Z,929.74
2017-12-13T00:41:35.831Z,929.71
2017-12-13T00:41:49.000Z,929.74
2017-12-13T00:42:01.654Z,929.71
2017-12-13T00:42:14.693Z,929.68
2017-12-13T00:42:27.771Z,929.71
2017-12-13T00:42:40.944Z,929.74
2017-12-13T00:42:53.590Z,929.7
2017-12-13T00:43:06.681Z,929.73
2017-12-13T00:43:20.653Z,929.72
2017-12-13T00:43:33.249Z,929.67
2017-12-13T00:43:46.303Z,929.68
2017-12-13T00:43:59.424Z,929.67
2017-12-13T00:44:12.072Z,929.71
2017-12-13T00:44:25.170Z,929.69
2017-12-13T00:44:38.320Z,929.67
2017-12-13T00:44:51.413Z,929.69
2017-12-13T00:45:04.527Z,929.71
2017-12-13T00:45:17.130Z,929.7
2017-12-13T00:45:30.187Z,929.71
2017-12-13T00:45:43.251Z,929.71
2017-12-13T00:45:56.370Z,929.69
2017-12-13T00:46:08.986Z,929.7
2017-12-13T00:46:21.621Z,929.65
2017-12-13T00:46:34.189Z,929.71
2017-12-13T00:46:47.311Z,929.73
2017-12-13T00:47:00.433Z,929.71
2017-12-13T00:47:13.545Z,929.71
2017-12-13T00:47:26.184Z,929.72
2017-12-13T00:47:39.263Z,929.75
2017-12-13T00:47:52.348Z,929.72
2017-12-13T00:48:05.444Z,929.65
2017-12-13T00:48:18.491Z,929.7
2017-12-13T00:48:31.848Z,929.69
2017-12-13T00:48:44.451Z,929.65
2017-12-13T00:48:57.521Z,929.74
2017-12-13T00:49:10.667Z,929.75
2017-12-13T00:49:23.335Z,929.68
2017-12-13T00:49:35.902Z,929.66
2017-12-13T00:49:48.930Z,929.65
2017-12-13T00:50:02.098Z,929.75
2017-12-13T00:50:15.129Z,929.74
2017-12-13T00:50:28.204Z,929.71
2017-12-13T00:50:41.303Z,929.69
2017-12-13T00:50:53.961Z,929.7
2017-12-13T00:51:07.055Z,929.73
2017-12-13T00:51:20.146Z,929.71
2017-12-13T00:51:32.791Z,929.77
2017-12-13T00:51:44.907Z,929.78
2017-12-13T00:51:57.517Z,929.73
2017-12-13T00:52:10.573Z,929.71
2017-12-13T00:52:23.629Z,929.69
2017-12-13T00:52:36.775Z,929.7
2017-12-13T00:52:49.393Z,929.72
2017-12-13T00:53:02.482Z,929.74
2017-12-13T00:53:15.118Z,929.72
2017-12-13T00:53:27.247Z,929.71
2017-12-13T00:53:40.345Z,929.75
2017-12-13T00:53:52.993Z,929.75
2017-12-13T00:54:06.093Z,929.75
2017-12-13T00:54:19.183Z,929.74
2017-12-13T00:54:32.315Z,929.76
2017-12-13T00:54:45.427Z,929.74
2017-12-13T00:54:58.452Z,929.75
2017-12-13T00:55:11.726Z,929.77
2017-12-13T00:55:24.902Z,929.79
2017-12-13T00:55:38.166Z,929.8
2017-12-13T00:55:51.304Z,929.8
2017-12-13T00:56:04.374Z,929.79
2017-12-13T00:56:17.493Z,929.76
2017-12-13T00:56:30.555Z,929.82
2017-12-13T00:56:43.706Z,929.77
2017-12-13T00:56:56.322Z,929.8
2017-12-13T00:57:09.424Z,929.76
2017-12-13T00:57:22.505Z,929.79
2017-12-13T00:57:35.075Z,929.78
2017-12-13T00:57:48.001Z,929.78
2017-12-13T00:58:00.624Z,929.77
2017-12-13T00:58:13.800Z,929.79
2017-12-13T00:58:27.164Z,929.8
2017-12-13T00:58:40.229Z,929.8
2017-12-13T00:58:53.262Z,929.76
2017-12-13T00:59:06.370Z,929.75
2017-12-13T00:59:18.959Z,929.73
2017-12-13T00:59:32.022Z,929.81
2017-12-13T00:59:45.118Z,929.82
2017-12-13T00:59:57.225Z,929.76
2017-12-13T01:00:10.359Z,929.82
2017-12-13T01:00:23.436Z,929.82
2017-12-13T01:00:36.150Z,929.83
2017-12-13T01:00:49.308Z,929.75
2017-12-13T01:01:02.378Z,929.81
2017-12-13T01:01:15.475Z,929.81
2017-12-13T01:01:28.535Z,929.82
2017-12-13T01:01:41.603Z,929.77
2017-12-13T01:01:54.696Z,929.75
2017-12-13T01:02:07.788Z,929.77
2017-12-13T01:02:20.378Z,929.8
2017-12-13T01:02:33.530Z,929.89
2017-12-13T01:02:46.634Z,929.84
2017-12-13T01:02:59.709Z,929.81
2017-12-13T01:03:12.840Z,929.81
2017-12-13T01:03:25.499Z,929.82
2017-12-13T01:03:38.623Z,929.8
2017-12-13T01:03:51.743Z,929.78
2017-12-13T01:04:04.862Z,929.81
2017-12-13T01:04:18.012Z,929.83
2017-12-13T01:04:31.374Z,929.84
2017-12-13T01:04:44.404Z,929.83
2017-12-13T01:04:57.461Z,929.86
2017-12-13T01:05:10.591Z,929.83
2017-12-13T01:05:23.721Z,929.83
2017-12-13T01:05:36.328Z,929.8
2017-12-13T01:05:48.971Z,929.81
2017-12-13T01:06:02.113Z,929.84
2017-12-13T01:06:14.757Z,929.76
2017-12-13T01:06:27.853Z,929.79
2017-12-13T01:06:40.435Z,929.78
2017-12-13T01:06:53.808Z,929.83
2017-12-13T01:07:06.908Z,929.74
2017-12-13T01:07:20.042Z,929.81
2017-12-13T01:07:33.120Z,929.8
2017-12-13T01:07:46.209Z,929.78
2017-12-13T01:07:59.305Z,929.82
2017-12-13T01:08:12.015Z,929.82
2017-12-13T01:08:25.097Z,929.83
2017-12-13T01:08:38.236Z,929.8
2017-12-13T01:08:51.341Z,929.77
2017-12-13T01:09:04.386Z,929.79
2017-12-13T01:09:17.498Z,929.81
2017-12-13T01:09:30.592Z,929.8
2017-12-13T01:09:42.734Z,929.75
2017-12-13T01:09:55.329Z,929.77
2017-12-13T01:10:07.510Z,929.78
2017-12-13T01:10:20.636Z,929.81
2017-12-13T01:10:33.289Z,929.75
2017-12-13T01:10:46.428Z,929.78
2017-12-13T01:10:59.504Z,929.76
2017-12-13T01:11:12.122Z,929.79
2017-12-13T01:11:25.260Z,929.77
2017-12-13T01:11:38.352Z,929.81
2017-12-13T01:11:51.406Z,929.84
2017-12-13T01:12:04.509Z,929.85
2017-12-13T01:12:17.159Z,929.83
2017-12-13T01:12:30.264Z,929.8
2017-12-13T01:12:43.376Z,929.82
2017-12-13T01:12:56.430Z,929.81
2017-12-13T01:13:09.131Z,929.82
2017-12-13T01:13:22.221Z,929.82
2017-12-13T01:13:35.351Z,929.8
2017-12-13T01:13:47.531Z,929.78
2017-12-13T01:14:00.703Z,929.81
2017-12-13T01:14:13.806Z,929.77
2017-12-13T01:14:26.904Z,929.77
2017-12-13T01:14:40.045Z,929.79
2017-12-13T01:14:52.696Z,929.81
2017-12-13T01:15:05.796Z,929.82
2017-12-13T01:15:18.901Z,929.8
2017-12-13T01:15:31.962Z,929.8
2017-12-13T01:15:44.107Z,929.79
2017-12-13T01:15:57.181Z,929.83
2017-12-13T01:16:10.066Z,929.79
2017-12-13T01:16:22.702Z,929.85
2017-12-13T01:16:35.830Z,929.81
2017-12-13T01:16:48.900Z,929.85
2017-12-13T01:17:01.981Z,929.81
2017-12-13T01:17:14.636Z,929.78
2017-12-13T01:17:27.708Z,929.81
2017-12-13T01:17:40.321Z,929.81
2017-12-13T01:17:53.457Z,929.8
2017-12-13T01:18:06.508Z,929.81
2017-12-13T01:18:18.708Z,929.81
2017-12-13T01:18:31.887Z,929.85
2017-12-13T01:18:44.464Z,929.8
2017-12-13T01:18:57.143Z,929.78
2017-12-13T01:19:10.226Z,929.81
2017-12-13T01:19:22.895Z,929.8
2017-12-13T01:19:36.306Z,929.8
2017-12-13T01:19:48.974Z,929.82
2017-12-13T01:20:02.167Z,929.84
2017-12-13T01:20:15.352Z,929.81
2017-12-13T01:20:27.976Z,929.79
2017-12-13T01:20:41.089Z,929.78
2017-12-13T01:20:54.220Z,929.79
2017-12-13T01:21:07.244Z,929.85
2017-12-13T01:21:20.304Z,929.78
2017-12-13T01:21:32.440Z,929.79
2017-12-13T01:21:45.531Z,929.78
2017-12-13T01:21:58.580Z,929.75
2017-12-13T01:22:11.723Z,929.76
2017-12-13T01:22:24.805Z,929.7
2017-12-13T01:22:37.918Z,929.77
2017-12-13T01:22:50.996Z,929.78
2017-12-13T01:23:04.109Z,929.74
2017-12-13T01:23:16.718Z,929.72
2017-12-13T01:23:29.312Z,929.73
2017-12-13T01:23:42.491Z,929.74
2017-12-13T01:23:55.593Z,929.76
2017-12-13T01:24:07.730Z,929.79
2017-12-13T01:24:20.351Z,929.73
2017-12-13T01:24:33.484Z,929.75
2017-12-13T01:24:46.588Z,929.79
2017-12-13T01:24:59.222Z,929.81
2017-12-13T01:25:12.346Z,929.78
2017-12-13T01:25:25.489Z,929.78
2017-12-13T01:25:38.644Z,929.78
2017-12-13T01:25:51.300Z,929.74
2017-12-13T01:26:04.403Z,929.72
2017-12-13T01:26:17.761Z,929.71
2017-12-13T01:26:30.851Z,929.74
2017-12-13T01:26:43.465Z,929.72
2017-12-13T01:26:56.566Z,929.77
2017-12-13T01:27:09.628Z,929.73
2017-12-13T01:27:22.696Z,929.72
2017-12-13T01:27:35.804Z,929.79
2017-12-13T01:27:48.970Z,929.73
2017-12-13T01:28:02.027Z,929.74
2017-12-13T01:28:15.084Z,929.68
2017-12-13T01:28:28.131Z,929.69
2017-12-13T01:28:41.353Z,929.74
2017-12-13T01:28:54.454Z,929.74
2017-12-13T01:29:07.605Z,929.74
2017-12-13T01:29:20.654Z,929.74
2017-12-13T01:29:32.794Z,929.71
2017-12-13T01:29:45.929Z,929.73
2017-12-13T01:29:58.045Z,929.74
2017-12-13T01:30:11.092Z,929.73
2017-12-13T01:30:24.187Z,929.74
2017-12-13T01:30:37.321Z,929.73
2017-12-13T01:30:49.924Z,929.72
2017-12-13T01:31:03.027Z,929.76
2017-12-13T01:31:16.105Z,929.73
2017-12-13T01:31:29.204Z,929.71
2017-12-13T01:31:41.858Z,929.73
2017-12-13T01:31:54.964Z,929.69
2017-12-13T01:32:07.564Z,929.74
2017-12-13T01:32:20.186Z,929.75
2017-12-13T01:32:33.284Z,929.73
2017-12-13T01:32:46.357Z,929.71
2017-12-13T01:32:59.412Z,929.7
2017-12-13T01:33:12.496Z,929.72
2017-12-13T01:33:25.110Z,929.75
2017-12-13T01:33:37.741Z,929.71
2017-12-13T01:33:50.788Z,929.69
2017-12-13T01:34:03.879Z,929.71
2017-12-13T01:34:17.076Z,929.68
2017-12-13T01:34:30.221Z,929.73
2017-12-13T01:34:42.374Z,929.71
2017-12-13T01:34:55.634Z,929.71
2017-12-13T01:35:08.647Z,929.68
2017-12-13T01:35:20.292Z,929.72
2017-12-13T01:35:33.394Z,929.7
2017-12-13T01:35:46.467Z,929.7
2017-12-13T01:35:59.471Z,929.72
2017-12-13T01:36:12.551Z,929.7
2017-12-13T01:36:25.680Z,929.69
2017-12-13T01:36:38.775Z,929.7
2017-12-13T01:36:51.409Z,929.73
2017-12-13T01:37:04.478Z,929.72
2017-12-13T01:37:17.606Z,929.69
2017-12-13T01:37:30.664Z,929.68
2017-12-13T01:37:42.359Z,929.69
2017-12-13T01:37:55.458Z,929.69
2017-12-13T01:38:08.547Z,929.68
2017-12-13T01:38:20.707Z,929.66
2017-12-13T01:38:33.761Z,929.64
2017-12-13T01:38:46.840Z,929.59
2017-12-13T01:38:59.916Z,929.65
2017-12-13T01:39:13.079Z,929.65
2017-12-13T01:39:26.176Z,929.64
2017-12-13T01:39:39.236Z,929.65
2017-12-13T01:39:52.379Z,929.62
2017-12-13T01:40:05.492Z,929.66
2017-12-13T01:40:18.082Z,929.63
2017-12-13T01:40:31.285Z,929.62
2017-12-13T01:40:43.957Z,929.6
2017-12-13T01:40:57.038Z,929.6
2017-12-13T01:41:10.193Z,929.59
2017-12-13T01:41:23.281Z,929.63
2017-12-13T01:41:36.129Z,929.6
2017-12-13T01:41:48.305Z,929.6
2017-12-13T01:42:01.430Z,929.61
2017-12-13T01:42:14.530Z,929.58
2017-12-13T01:42:27.112Z,929.57
2017-12-13T01:42:40.198Z,929.6
2017-12-13T01:42:53.291Z,929.59
2017-12-13T01:43:06.582Z,929.57
2017-12-13T01:43:19.593Z,929.56
2017-12-13T01:43:32.246Z,929.58
2017-12-13T01:43:46.166Z,929.56
2017-12-13T01:43:59.287Z,929.56
2017-12-13T01:44:12.357Z,929.57
2017-12-13T01:44:25.448Z,929.57
2017-12-13T01:44:38.556Z,929.55
2017-12-13T01:44:51.866Z,929.58
2017-12-13T01:45:04.991Z,929.58
2017-12-13T01:45:18.107Z,929.54
2017-12-13T01:45:31.231Z,929.55
2017-12-13T01:45:44.304Z,929.58
2017-12-13T01:45:57.393Z,929.6
2017-12-13T01:46:10.443Z,929.61
2017-12-13T01:46:23.607Z,929.6
2017-12-13T01:46:36.647Z,929.56
2017-12-13T01:46:49.697Z,929.62
2017-12-13T01:47:02.801Z,929.59
2017-12-13T01:47:15.903Z,929.58
2017-12-13T01:47:28.960Z,929.57
2017-12-13T01:47:42.073Z,929.6
2017-12-13T01:47:55.273Z,929.58
2017-12-13T01:48:08.385Z,929.57
2017-12-13T01:48:21.485Z,929.59
2017-12-13T01:48:34.583Z,929.58
2017-12-13T01:48:48.080Z,929.6
2017-12-13T01:49:01.147Z,929.6
2017-12-13T01:49:14.255Z,929.59
2017-12-13T01:49:27.347Z,929.59
2017-12-13T01:49:40.549Z,929.62
2017-12-13T01:49:53.678Z,929.6
2017-12-13T01:50:06.747Z,929.57
2017-12-13T01:50:19.802Z,929.59
2017-12-13T01:50:32.368Z,929.61
2017-12-13T01:50:44.994Z,929.57
2017-12-13T01:50:57.588Z,929.6
2017-12-13T01:51:09.701Z,929.59
2017-12-13T01:51:22.807Z,929.6
2017-12-13T01:51:35.918Z,929.62
2017-12-13T01:51:49.015Z,929.61
2017-12-13T01:52:02.119Z,929.58
2017-12-13T01:52:15.241Z,929.6
2017-12-13T01:52:28.345Z,929.57
2017-12-13T01:52:41.468Z,929.61
2017-12-13T01:52:54.565Z,929.61
2017-12-13T01:53:07.861Z,929.6
2017-12-13T01:53:20.939Z,929.61
2017-12-13T01:53:34.010Z,929.6
2017-12-13T01:53:46.744Z,929.6
2017-12-13T01:53:59.861Z,929.61
2017-12-13T01:54:12.441Z,929.62
2017-12-13T01:54:25.541Z,929.64
2017-12-13T01:54:38.806Z,929.61
2017-12-13T01:54:51.419Z,929.61
2017-12-13T01:55:04.571Z,929.6
2017-12-13T01:55:17.655Z,929.61
2017-12-13T01:55:30.295Z,929.57
2017-12-13T01:55:42.938Z,929.6
2017-12-13T01:55:55.527Z,929.57
2017-12-13T01:56:08.596Z,929.6
2017-12-13T01:56:21.752Z,929.57
2017-12-13T01:56:34.855Z,929.62
2017-12-13T01:56:47.969Z,929.58
2017-12-13T01:57:02.615Z,929.57
2017-12-13T01:57:15.243Z,929.63
2017-12-13T01:57:27.827Z,929.58
2017-12-13T01:57:40.899Z,929.58
2017-12-13T01:57:53.488Z,929.61
2017-12-13T01:58:06.624Z,929.62
2017-12-13T01:58:19.756Z,929.65
2017-12-13T01:58:32.812Z,929.58
2017-12-13T01:58:45.408Z,929.61
2017-12-13T01:58:59.246Z,929.64
2017-12-13T01:59:12.271Z,929.61
2017-12-13T01:59:25.405Z,929.67
2017-12-13T01:59:38.496Z,929.66
2017-12-13T01:59:51.572Z,929.62
2017-12-13T02:00:04.238Z,929.61
2017-12-13T02:00:16.853Z,929.65
2017-12-13T02:00:29.935Z,929.63
2017-12-13T02:00:43.039Z,929.58
2017-12-13T02:00:56.091Z,929.71
2017-12-13T02:01:09.207Z,929.62
2017-12-13T02:01:22.364Z,929.63
2017-12-13T02:01:35.392Z,929.61
2017-12-13T02:01:48.506Z,929.61
2017-12-13T02:02:01.613Z,929.65
2017-12-13T02:02:14.717Z,929.64
2017-12-13T02:02:27.810Z,929.64
2017-12-13T02:02:40.967Z,929.64
2017-12-13T02:02:53.639Z,929.65
2017-12-13T02:03:06.773Z,929.61
2017-12-13T02:03:19.841Z,929.62
2017-12-13T02:03:32.452Z,929.61
2017-12-13T02:03:45.535Z,929.62
2017-12-13T02:03:58.587Z,929.64
2017-12-13T02:04:11.714Z,929.64
2017-12-13T02:04:24.365Z,929.64
2017-12-13T02:04:37.425Z,929.67
2017-12-13T02:04:50.051Z,929.63
2017-12-13T02:05:03.151Z,929.69
2017-12-13T02:05:15.853Z,929.62
2017-12-13T02:05:29.059Z,929.64
2017-12-13T02:05:42.137Z,929.62
2017-12-13T02:05:54.337Z,929.63
2017-12-13T02:06:07.380Z,929.62
2017-12-13T02:06:19.946Z,929.65
2017-12-13T02:06:32.989Z,929.64
2017-12-13T02:06:46.101Z,929.65
2017-12-13T02:06:58.702Z,929.62
2017-12-13T02:07:11.854Z,929.63
2017-12-13T02:07:24.946Z,929.61
2017-12-13T02:07:37.141Z,929.63
2017-12-13T02:07:50.214Z,929.63
2017-12-13T02:08:03.293Z,929.6
2017-12-13T02:08:16.372Z,929.58
2017-12-13T02:08:29.440Z,929.64
2017-12-13T02:08:42.513Z,929.65
2017-12-13T02:08:55.129Z,929.61
2017-12-13T02:09:07.813Z,929.6
2017-12-13T02:09:20.935Z,929.63
2017-12-13T02:09:34.076Z,929.61
2017-12-13T02:09:47.200Z,929.61
2017-12-13T02:10:00.340Z,929.62
2017-12-13T02:10:13.425Z,929.62
2017-12-13T02:10:26.551Z,929.61
2017-12-13T02:10:39.601Z,929.63
2017-12-13T02:10:52.664Z,929.61
2017-12-13T02:11:05.345Z,929.62
2017-12-13T02:11:18.418Z,929.63
2017-12-13T02:11:31.577Z,929.58
2017-12-13T02:11:44.658Z,929.62
2017-12-13T02:11:57.275Z,929.59
2017-12-13T02:12:09.873Z,929.62
2017-12-13T02:12:22.470Z,929.63
2017-12-13T02:12:35.059Z,929.58
2017-12-13T02:12:48.166Z,929.62
2017-12-13T02:13:00.818Z,929.62
2017-12-13T02:13:13.824Z,929.59
2017-12-13T02:13:26.918Z,929.56
2017-12-13T02:13:39.526Z,929.62
2017-12-13T02:13:52.216Z,929.6
2017-12-13T02:14:05.275Z,929.59
2017-12-13T02:14:17.950Z,929.6
2017-12-13T02:14:30.984Z,929.63
2017-12-13T02:14:43.602Z,929.61
2017-12-13T02:14:56.629Z,929.53
2017-12-13T02:15:09.728Z,929.58
2017-12-13T02:15:22.788Z,929.61
2017-12-13T02:15:35.862Z,929.6
2017-12-13T02:15:48.954Z,929.59
2017-12-13T02:16:02.296Z,929.57
2017-12-13T02:16:15.409Z,929.57
2017-12-13T02:16:28.550Z,929.58
2017-12-13T02:16:41.686Z,929.56
2017-12-13T02:16:54.830Z,929.51
2017-12-13T02:17:07.873Z,929.55
2017-12-13T02:17:20.993Z,929.59
2017-12-13T02:17:34.084Z,929.55
2017-12-13T02:17:47.167Z,929.56
2017-12-13T02:18:00.211Z,929.58
2017-12-13T02:18:12.810Z,929.59
2017-12-13T02:18:25.877Z,929.6
2017-12-13T02:18:38.941Z,929.55
2017-12-13T02:18:51.598Z,929.54
2017-12-13T02:19:04.678Z,929.53
2017-12-13T02:19:17.414Z,929.57
2017-12-13T02:19:30.460Z,929.57
2017-12-13T02:19:43.526Z,929.55
2017-12-13T02:19:56.172Z,929.59
2017-12-13T02:20:09.216Z,929.59
2017-12-13T02:20:22.238Z,929.61
2017-12-13T02:20:35.326Z,929.59
2017-12-13T02:20:47.951Z,929.61
2017-12-13T02:21:01.049Z,929.54
2017-12-13T02:21:14.167Z,929.56
2017-12-13T02:21:27.238Z,929.56
2017-12-13T02:21:39.856Z,929.56
2017-12-13T02:21:52.920Z,929.56
2017-12-13T02:22:06.206Z,929.56
2017-12-13T02:22:19.350Z,929.56
2017-12-13T02:22:32.488Z,929.6
2017-12-13T02:22:45.116Z,929.6
2017-12-13T02:22:58.307Z,929.56
2017-12-13T02:23:10.938Z,929.56
2017-12-13T02:23:23.076Z,929.57
2017-12-13T02:23:36.196Z,929.58
2017-12-13T02:23:49.486Z,929.56
2017-12-13T02:24:02.556Z,929.59
2017-12-13T02:24:15.167Z,929.54
2017-12-13T02:24:28.288Z,929.56
2017-12-13T02:24:41.356Z,929.55
2017-12-13T02:24:54.468Z,929.57
2017-12-13T02:25:07.532Z,929.61
2017-12-13T02:25:20.631Z,929.61
2017-12-13T02:25:33.703Z,929.57
2017-12-13T02:25:46.855Z,929.59
2017-12-13T02:25:59.960Z,929.6
2017-12-13T02:26:12.590Z,929.55
2017-12-13T02:26:25.702Z,929.57
2017-12-13T02:26:38.809Z,929.56
2017-12-13T02:26:51.417Z,929.6
2017-12-13T02:27:04.040Z,929.53
2017-12-13T02:27:17.064Z,929.59
2017-12-13T02:27:29.700Z,929.58
2017-12-13T02:27:42.380Z,929.58
2017-12-13T02:27:55.522Z,929.58
2017-12-13T02:28:08.667Z,929.61
2017-12-13T02:28:21.806Z,929.6
2017-12-13T02:28:34.951Z,929.56
2017-12-13T02:28:48.237Z,929.6
2017-12-13T02:29:01.118Z,929.58
2017-12-13T02:29:14.171Z,929.56
2017-12-13T02:29:27.278Z,929.53
2017-12-13T02:29:40.363Z,929.58
2017-12-13T02:29:53.011Z,929.56
2017-12-13T02:30:06.073Z,929.54
2017-12-13T02:30:18.222Z,929.6
2017-12-13T02:30:30.808Z,929.57
2017-12-13T02:30:43.413Z,929.61
2017-12-13T02:30:56.497Z,929.59
2017-12-13T02:31:09.120Z,929.53
2017-12-13T02:31:22.237Z,929.53
2017-12-13T02:31:34.343Z,929.54
2017-12-13T02:31:47.423Z,929.51
2017-12-13T02:32:00.563Z,929.53
2017-12-13T02:32:13.702Z,929.55
2017-12-13T02:32:26.860Z,929.5
2017-12-13T02:32:39.442Z,929.54
2017-12-13T02:32:52.517Z,929.48
2017-12-13T02:33:05.626Z,929.51
2017-12-13T02:33:18.695Z,929.51
2017-12-13T02:33:31.845Z,929.49
2017-12-13T02:33:44.485Z,929.48
2017-12-13T02:33:57.619Z,929.47
2017-12-13T02:34:10.717Z,929.47
2017-12-13T02:34:23.390Z,929.48
2017-12-13T02:34:36.512Z,929.45
2017-12-13T02:34:49.126Z,929.45
2017-12-13T02:35:02.221Z,929.46
2017-12-13T02:35:15.302Z,929.47
2017-12-13T02:35:27.953Z,929.45
2017-12-13T02:35:41.090Z,929.45
2017-12-13T02:35:54.162Z,929.48
2017-12-13T02:36:06.796Z,929.46
2017-12-13T02:36:19.847Z,929.44
2017-12-13T02:36:32.909Z,929.44
2017-12-13T02:36:46.033Z,929.45
2017-12-13T02:36:59.128Z,929.43
2017-12-13T02:37:12.218Z,929.41
2017-12-13T02:37:24.826Z,929.41
2017-12-13T02:37:37.966Z,929.43
2017-12-13T02:37:50.569Z,929.43
2017-12-13T02:38:03.589Z,929.42
2017-12-13T02:38:16.200Z,929.42
2017-12-13T02:38:29.268Z,929.41
2017-12-13T02:38:42.121Z,929.41
2017-12-13T02:38:55.208Z,929.4
2017-12-13T02:39:08.289Z,929.42
2017-12-13T02:39:21.403Z,929.42
2017-12-13T02:39:34.066Z,929.39
2017-12-13T02:39:47.223Z,929.38
2017-12-13T02:40:00.241Z,929.41
2017-12-13T02:40:13.367Z,929.38
2017-12-13T02:40:25.971Z,929.39
2017-12-13T02:40:38.123Z,929.42
2017-12-13T02:40:51.282Z,929.39
2017-12-13T02:41:03.908Z,929.42
2017-12-13T02:41:17.103Z,929.43
2017-12-13T02:41:29.697Z,929.4
2017-12-13T02:41:42.341Z,929.38
2017-12-13T02:41:54.983Z,929.42
2017-12-13T02:42:08.132Z,929.41
2017-12-13T02:42:21.234Z,929.39